Time;durP1;ratioP1;P1;durP2;ratioP2;P2;SDS_P1;SDS_P2;PMS_P1;PMS_P2;Temp;Humidity;BMP_temperature;BMP_pressure;BME280_temperature;BME280_humidity;BME280_pressure;Samples;Min_cycle;Max_cycle;Signal;HPM_P1;HPM_P2
2022/04/26 03:38:20;;;;;;;34.47;14.13;;;;;;;-149.78;100.00;50401.03;4884546;29;20047;-72
2022/04/26 03:40:45;;;;;;;34.42;15.13;;;;;;;-149.78;100.00;50432.31;4897340;29;20614;-72
2022/04/26 03:43:11;;;;;;;31.30;13.75;;;;;;;-149.78;100.00;50377.56;4897366;29;20291;-72
2022/04/26 03:45:36;;;;;;;30.75;13.43;;;;;;;-149.78;100.00;50401.03;4897105;29;20417;-72
2022/04/26 03:48:02;;;;;;;35.42;14.90;;;;;;;-149.78;100.00;50399.09;4898112;29;20123;-73
2022/04/26 03:50:28;;;;;;;29.35;13.52;;;;;;;-149.78;100.00;50373.66;4896998;29;20473;-72
2022/04/26 03:52:54;;;;;;;30.63;14.40;;;;;;;-149.78;100.00;50412.78;4897303;29;20044;-72
2022/04/26 03:55:20;;;;;;;33.92;14.43;;;;;;;-149.78;100.00;50373.66;4896913;29;20088;-72
2022/04/26 03:57:46;;;;;;;35.53;14.50;;;;;;;-149.78;100.00;50463.63;4892397;29;20458;-72
2022/04/26 04:00:12;;;;;;;34.60;14.77;;;;;;;-149.78;100.00;50397.13;4881320;29;20047;-72
2022/04/26 04:02:41;;;;;;;31.02;14.07;;;;;;;-149.78;100.00;50412.78;4896706;29;20180;-72
2022/04/26 04:05:07;;;;;;;33.13;15.23;;;;;;;-149.78;100.00;50383.44;4886285;29;20515;-72
2022/04/26 04:07:33;;;;;;;30.00;14.45;;;;;;;-149.78;100.00;50412.78;4905846;29;20119;-72
2022/04/26 04:09:59;;;;;;;33.90;14.85;;;;;;;-149.78;100.00;50424.50;4917087;29;20488;-72
2022/04/26 04:12:26;;;;;;;32.90;13.77;;;;;;;-149.78;100.00;50463.63;4915875;29;20048;-72
2022/04/26 04:14:53;;;;;;;32.60;14.25;;;;;;;-149.78;100.00;50361.91;4907585;29;20048;-72
2022/04/26 04:17:19;;;;;;;34.83;15.05;;;;;;;-149.78;100.00;50369.75;4896981;29;20041;-72
2022/04/26 04:19:45;;;;;;;35.70;15.38;;;;;;;-149.78;100.00;50410.81;4896792;29;20044;-72
2022/04/26 04:22:11;;;;;;;37.33;14.15;;;;;;;-149.78;100.00;50401.03;4896926;29;20044;-73
2022/04/26 04:24:36;;;;;;;33.42;14.40;;;;;;;-149.78;100.00;50373.66;4881362;29;20051;-72
2022/04/26 04:27:04;;;;;;;30.77;14.32;;;;;;;-149.78;100.00;50412.78;4898178;29;20401;-73
2022/04/26 04:29:29;;;;;;;41.10;14.00;;;;;;;-149.78;100.00;50393.22;4865648;29;20120;-72
2022/04/26 04:31:55;;;;;;;34.47;14.60;;;;;;;-149.78;100.00;50420.59;4896228;29;20124;-72
2022/04/26 04:34:22;;;;;;;35.63;15.25;;;;;;;-149.78;100.00;50385.38;4900604;29;20128;-72
2022/04/26 04:36:47;;;;;;;32.28;14.70;;;;;;;-149.78;100.00;50404.94;4892006;29;20481;-72
2022/04/26 04:39:19;;;;;;;30.58;14.95;;;;;;;-149.78;100.00;50391.25;4915568;29;20047;-72
2022/04/26 04:41:46;;;;;;;33.33;15.03;;;;;;;-149.78;100.00;50381.47;4895125;29;20040;-72
2022/04/26 04:44:12;;;;;;;29.67;14.88;;;;;;;-149.78;100.00;50404.94;4880986;29;20135;-72
2022/04/26 04:46:38;;;;;;;31.75;14.35;;;;;;;-149.78;100.00;50373.66;4881446;29;20097;-72
2022/04/26 04:49:03;;;;;;;31.63;14.43;;;;;;;-149.78;100.00;50424.50;4880934;29;20044;-73
2022/04/26 04:51:29;;;;;;;29.98;13.85;;;;;;;-149.78;100.00;50381.47;4897565;29;20047;-72
2022/04/26 04:53:55;;;;;;;33.60;15.55;;;;;;;-149.78;100.00;50397.13;4896659;29;20041;-73
2022/04/26 04:56:23;;;;;;;33.58;14.23;;;;;;;-149.78;100.00;50416.69;4896313;29;20036;-73
2022/04/26 04:58:49;;;;;;;33.17;15.77;;;;;;;-149.78;100.00;50403.00;4896529;29;20046;-72
2022/04/26 05:01:15;;;;;;;33.42;14.80;;;;;;;-149.78;100.00;50401.03;4896556;29;20044;-73
2022/04/26 05:03:40;;;;;;;33.75;15.63;;;;;;;-149.78;100.00;50401.03;4897724;29;20048;-73
2022/04/26 05:06:06;;;;;;;36.15;14.63;;;;;;;-149.78;100.00;50406.91;4896401;29;20084;-72
2022/04/26 05:08:32;;;;;;;31.60;15.20;;;;;;;-149.78;100.00;50389.31;4912646;29;20043;-73
2022/04/26 05:10:58;;;;;;;38.10;15.23;;;;;;;-149.78;100.00;50389.31;4916549;29;20047;-73
2022/04/26 05:13:23;;;;;;;36.22;14.45;;;;;;;-149.78;100.00;50410.81;4915371;29;20110;-73
2022/04/26 05:15:49;;;;;;;31.48;15.02;;;;;;;-149.78;100.00;50408.84;4898782;29;20515;-73
2022/04/26 05:18:14;;;;;;;34.15;14.90;;;;;;;-149.78;100.00;50393.22;4897680;29;20040;-73
2022/04/26 05:20:40;;;;;;;35.33;15.13;;;;;;;-149.78;100.00;50389.31;4897538;29;20047;-72
2022/04/26 05:25:50;;;;;;;35.60;14.95;;;;;;;-149.78;100.00;50385.38;4896592;29;20048;-73
2022/04/26 05:28:15;;;;;;;39.75;15.70;;;;;;;-149.78;100.00;50420.59;4896416;29;20044;-72
2022/04/26 05:30:41;;;;;;;33.22;15.25;;;;;;;-149.78;100.00;50406.91;4897587;29;20040;-72
2022/04/26 05:33:07;;;;;;;43.28;16.35;;;;;;;-149.78;100.00;50397.13;4896693;29;20380;-73
2022/04/26 05:35:34;;;;;;;39.58;16.38;;;;;;;-149.78;100.00;50408.84;4896406;29;20040;-73
2022/04/26 05:38:00;;;;;;;38.28;16.30;;;;;;;-149.78;100.00;50365.84;4880776;29;20044;-73
2022/04/26 05:40:25;;;;;;;32.70;16.27;;;;;;;-149.78;100.00;50408.84;4898172;29;20164;-73
2022/04/26 05:42:51;;;;;;;34.45;15.48;;;;;;;-149.78;100.00;50447.97;4916040;29;20392;-73
2022/04/26 05:45:17;;;;;;;33.92;15.60;;;;;;;-149.78;100.00;50436.25;4918583;29;20039;-72
2022/04/26 05:47:44;;;;;;;30.48;14.93;;;;;;;-149.78;100.00;50379.53;4919728;29;20089;-73
2022/04/26 05:50:11;;;;;;;32.65;15.48;;;;;;;-149.78;100.00;50401.03;4907518;29;20119;-73
2022/04/26 05:52:37;;;;;;;36.38;15.55;;;;;;;-149.78;100.00;50377.56;4899538;29;20039;-72
2022/04/26 05:55:04;;;;;;;34.88;15.90;;;;;;;-149.78;100.00;50393.22;4899408;29;20064;-72
2022/04/26 05:57:31;;;;;;;35.15;16.05;;;;;;;-149.78;100.00;50416.69;4900948;29;20093;-73
2022/04/26 05:59:56;;;;;;;38.60;14.90;;;;;;;-149.78;100.00;50416.69;4894697;29;20045;-72
2022/04/26 06:02:22;;;;;;;38.88;16.15;;;;;;;-149.78;100.00;50397.13;4888886;29;20101;-72
2022/04/26 06:04:48;;;;;;;36.33;14.98;;;;;;;-149.78;100.00;50401.03;4891461;29;20093;-73
2022/04/26 06:07:13;;;;;;;33.95;14.65;;;;;;;-149.78;100.00;50397.13;4876657;29;20040;-73
2022/04/26 06:09:40;;;;;;;36.78;15.07;;;;;;;-149.78;100.00;50424.50;4871878;29;20033;-72
2022/04/26 06:12:06;;;;;;;36.20;14.30;;;;;;;-149.78;100.00;50369.75;4888807;29;20033;-73
2022/04/26 06:14:31;;;;;;;34.92;14.73;;;;;;;-149.78;100.00;50424.50;4883673;29;20489;-73
2022/04/26 06:16:57;;;;;;;31.27;15.30;;;;;;;-149.78;100.00;50412.78;4888033;29;20040;-73
2022/04/26 06:19:23;;;;;;;29.75;14.38;;;;;;;-149.78;100.00;50385.38;4884278;29;20048;-76
2022/04/26 06:21:48;;;;;;;39.35;15.02;;;;;;;-149.78;100.00;50416.69;4877626;29;20037;-72
2022/04/26 06:24:14;;;;;;;33.30;14.38;;;;;;;-149.78;100.00;50373.66;4878760;29;20037;-73
2022/04/26 06:26:39;;;;;;;32.53;13.73;;;;;;;-149.78;100.00;50361.91;4888891;29;20033;-74
2022/04/26 06:29:05;;;;;;;34.72;14.60;;;;;;;-149.78;100.00;50403.00;4873973;29;20036;-75
2022/04/26 06:31:31;;;;;;;27.35;13.38;;;;;;;-149.78;100.00;50389.31;4880931;29;20056;-73
2022/04/26 06:33:58;;;;;;;32.97;14.02;;;;;;;-149.78;100.00;50401.03;4892409;29;20453;-75
2022/04/26 06:36:23;;;;;;;33.42;14.15;;;;;;;-149.78;100.00;50404.94;4888916;29;20048;-74
2022/04/26 06:38:49;;;;;;;31.90;13.63;;;;;;;-149.78;100.00;50420.59;4918103;29;20123;-75
2022/04/26 06:41:15;;;;;;;29.58;15.23;;;;;;;-149.78;100.00;50381.47;4904398;29;20523;-74
2022/04/26 06:43:42;;;;;;;29.73;13.55;;;;;;;-149.78;100.00;50381.47;4881817;29;20040;-74
2022/04/26 06:46:07;;;;;;;27.80;13.30;;;;;;;-149.78;100.00;50412.78;4891811;29;20609;-74
2022/04/26 06:48:33;;;;;;;28.20;12.82;;;;;;;-149.78;100.00;50404.94;4894499;29;20636;-74
2022/04/26 06:50:58;;;;;;;30.67;14.25;;;;;;;-149.78;100.00;50361.91;4897404;29;20567;-73
2022/04/26 06:53:24;;;;;;;30.65;13.23;;;;;;;-149.78;100.00;50416.69;4881258;29;20093;-73
2022/04/26 06:55:49;;;;;;;27.88;13.13;;;;;;;-149.78;100.00;50397.13;4897492;29;20045;-73
2022/04/26 06:58:15;;;;;;;26.75;13.02;;;;;;;-149.78;100.00;50361.91;4890167;29;20036;-72
2022/04/26 07:00:42;;;;;;;30.80;12.80;;;;;;;-149.78;100.00;50428.41;4885325;29;20036;-72
2022/04/26 07:03:08;;;;;;;33.88;13.52;;;;;;;-149.78;100.00;50381.47;4888633;29;20037;-72
2022/04/26 07:05:34;;;;;;;25.95;12.57;;;;;;;-149.78;100.00;50377.56;4886585;29;20072;-72
2022/04/26 07:08:00;;;;;;;26.25;12.00;;;;;;;-149.78;100.00;50401.03;4884189;29;20033;-73
2022/04/26 07:10:28;;;;;;;28.02;12.32;;;;;;;-149.78;100.00;50401.03;4885114;29;20028;-73
2022/04/26 07:12:55;;;;;;;24.17;12.45;;;;;;;-149.78;100.00;50393.22;4866408;29;20041;-73
2022/04/26 07:15:20;;;;;;;27.30;12.82;;;;;;;-149.78;100.00;50397.13;4875990;29;20044;-74
2022/04/26 07:17:46;;;;;;;25.33;11.93;;;;;;;-149.78;100.00;50399.09;4882328;29;20497;-73
2022/04/26 07:20:11;;;;;;;24.10;11.30;;;;;;;-149.78;100.00;50408.84;4897794;29;20114;-73
2022/04/26 07:22:38;;;;;;;25.85;11.55;;;;;;;-149.78;100.00;50404.94;4894644;29;20104;-72
2022/04/26 07:25:08;;;;;;;34.38;13.77;;;;;;;-149.78;100.00;50414.72;4880513;29;20579;-71
2022/04/26 07:27:34;;;;;;;27.98;12.50;;;;;;;-149.78;100.00;50367.78;4876614;29;20128;-74
2022/04/26 07:30:00;;;;;;;25.35;11.93;;;;;;;-149.78;100.00;50387.34;4887225;29;20115;-74
2022/04/26 07:35:30;;;;;;;22.85;11.93;;;;;;;-149.78;100.00;50381.47;4840378;29;20045;-73
2022/04/26 07:38:06;;;;;;;23.90;11.90;;;;;;;-149.78;100.00;50385.38;4838425;29;20553;-72
2022/04/26 07:40:32;;;;;;;25.25;11.88;;;;;;;-149.78;100.00;50381.47;4878330;29;20063;-72
2022/04/26 07:42:58;;;;;;;19.25;10.73;;;;;;;-149.78;100.00;50391.25;4890955;29;20033;-73
2022/04/26 07:45:24;;;;;;;25.48;12.25;;;;;;;-149.78;100.00;50358.00;4898250;29;20060;-73
2022/04/26 07:47:51;;;;;;;26.60;11.40;;;;;;;-149.78;100.00;50369.75;4897832;29;20089;-73
2022/04/26 07:50:16;;;;;;;21.58;10.88;;;;;;;-149.78;100.00;50369.75;4881310;29;20444;-73
2022/04/26 07:52:42;;;;;;;21.55;11.00;;;;;;;-149.78;100.00;50381.47;4896960;29;20131;-73
2022/04/26 07:55:08;;;;;;;20.67;9.60;;;;;;;-149.78;100.00;50358.00;4883183;29;20119;-73
2022/04/26 07:57:34;;;;;;;19.85;9.25;;;;;;;-149.78;100.00;50350.19;4888341;29;20044;-73
2022/04/26 08:00:00;;;;;;;20.23;9.77;;;;;;;-149.78;100.00;50361.91;4888205;29;20037;-74
2022/04/26 08:02:26;;;;;;;17.25;9.20;;;;;;;-149.78;100.00;50408.84;4881329;29;20497;-74
2022/04/26 08:04:54;;;;;;;17.20;9.80;;;;;;;-149.78;100.00;50373.66;4891091;29;20069;-73
2022/04/26 08:07:20;;;;;;;23.83;10.15;;;;;;;-149.78;100.00;50408.84;4892038;29;20041;-72
2022/04/26 08:09:45;;;;;;;28.58;11.18;;;;;;;-149.78;100.00;50381.47;4889721;29;20040;-73
2022/04/26 08:12:11;;;;;;;21.88;10.98;;;;;;;-149.78;100.00;50369.75;4852069;29;20056;-73
2022/04/26 08:14:37;;;;;;;17.25;9.55;;;;;;;-149.78;100.00;50363.88;4879169;29;20044;-73
2022/04/26 08:17:03;;;;;;;19.30;9.32;;;;;;;-149.78;100.00;50381.47;4883227;29;20033;-73
2022/04/26 08:19:29;;;;;;;16.88;9.40;;;;;;;-149.78;100.00;50408.84;4879116;29;20553;-71
2022/04/26 08:21:54;;;;;;;19.17;9.15;;;;;;;-149.78;100.00;50381.47;4885928;29;20080;-74
2022/04/26 08:27:24;;;;;;;18.23;9.32;;;;;;;-149.78;100.00;50358.00;4897276;29;20040;-73
2022/04/26 08:29:55;;;;;;;16.10;8.80;;;;;;;-149.78;100.00;50367.78;4896634;29;20674;-73
2022/04/26 08:32:30;;;;;;;19.70;9.07;;;;;;;-149.78;100.00;50358.00;4897852;29;20148;-73
2022/04/26 08:34:58;;;;;;;19.40;9.88;;;;;;;-149.78;100.00;50397.13;4897655;29;20042;-73
2022/04/26 08:37:24;;;;;;;15.80;8.60;;;;;;;-149.78;100.00;50393.22;4908466;29;20067;-74
2022/04/26 08:39:52;;;;;;;19.83;10.05;;;;;;;-149.78;100.00;50389.31;4916613;29;20064;-73
2022/04/26 08:42:37;;;;;;;19.73;9.15;;;;;;;-149.78;100.00;50354.09;4899320;29;20050;-73
2022/04/26 08:45:08;;;;;;;22.88;10.52;;;;;;;-149.78;100.00;50369.75;4916251;29;20047;-74
2022/04/26 08:53:03;;;;;;;18.45;9.98;;;;;;;-149.78;100.00;50358.00;4896859;29;20040;-74
2022/04/26 08:55:33;;;;;;;18.42;9.95;;;;;;;-149.78;100.00;50348.22;4896166;29;20132;-73
2022/04/26 08:57:59;;;;;;;17.70;9.60;;;;;;;-149.78;100.00;50389.31;4897320;29;20479;-74
2022/04/26 09:00:25;;;;;;;16.40;9.73;;;;;;;-149.78;100.00;50377.56;4882770;29;20037;-73
2022/04/26 09:03:05;;;;;;;20.20;10.68;;;;;;;-149.78;100.00;50336.50;4878645;29;20044;-73
2022/04/26 09:05:31;;;;;;;18.65;10.63;;;;;;;-149.78;100.00;50354.09;4882286;29;20025;-73
2022/04/26 09:07:58;;;;;;;17.02;9.35;;;;;;;-149.78;100.00;50381.47;4878527;29;20040;-72
2022/04/26 09:10:25;;;;;;;21.90;11.07;;;;;;;-149.78;100.00;50338.44;4878626;29;20107;-73
2022/04/26 09:13:05;;;;;;;18.65;10.68;;;;;;;-149.78;100.00;50373.66;4878924;29;20052;-73
2022/04/26 09:15:41;;;;;;;18.08;9.95;;;;;;;-149.78;100.00;50348.22;4896085;29;20037;-72
2022/04/26 09:18:29;;;;;;;16.70;9.55;;;;;;;-149.78;100.00;50354.09;4900897;29;20036;-73
2022/04/26 09:21:05;;;;;;;18.42;10.55;;;;;;;-149.78;100.00;50358.00;4895852;29;20525;-74
2022/04/26 09:23:34;;;;;;;17.13;9.88;;;;;;;-149.78;100.00;50342.38;4889553;29;20040;-72
2022/04/26 09:26:12;;;;;;;17.88;9.70;;;;;;;-149.78;100.00;50346.28;4886072;29;20068;-73
2022/04/26 09:28:42;;;;;;;18.02;9.73;;;;;;;-149.78;100.00;50346.28;4882139;29;20085;-73
2022/04/26 09:31:19;;;;;;;18.02;9.68;;;;;;;-149.78;100.00;50330.63;4882139;29;20064;-74
2022/04/26 09:33:51;;;;;;;13.43;9.13;;;;;;;-149.78;100.00;50324.75;4896505;29;20100;-73
2022/04/26 09:36:21;;;;;;;16.52;10.10;;;;;;;-149.78;100.00;50295.44;4883700;29;20040;-73
2022/04/26 09:38:56;;;;;;;16.00;9.25;;;;;;;-149.78;100.00;50307.16;4899401;29;20032;-74
2022/04/26 09:41:23;;;;;;;15.68;9.20;;;;;;;-149.78;100.00;50262.19;4899357;29;20086;-74
2022/04/26 09:44:03;;;;;;;15.38;9.50;;;;;;;-149.78;100.00;50299.34;4883832;29;20037;-74
2022/04/26 09:46:41;;;;;;;14.32;9.70;;;;;;;-149.78;100.00;50287.59;4900527;29;20033;-73
2022/04/26 09:49:10;;;;;;;14.35;9.63;;;;;;;-149.78;100.00;50285.66;4900278;29;20051;-74
2022/04/26 09:51:42;;;;;;;13.48;9.20;;;;;;;-149.78;100.00;50275.88;4900237;29;20481;-74
2022/04/26 09:54:08;;;;;;;15.18;9.05;;;;;;;-149.78;100.00;50307.16;4883507;29;20513;-74
2022/04/26 09:56:34;;;;;;;12.77;8.45;;;;;;;-149.78;100.00;50303.25;4888045;29;20120;-74
2022/04/26 09:59:02;;;;;;;13.13;8.93;;;;;;;-149.78;100.00;50275.88;4887432;29;20500;-74
2022/04/26 10:01:34;;;;;;;15.13;9.05;;;;;;;-149.78;100.00;50244.59;4883610;29;20041;-74
2022/04/26 10:04:06;;;;;;;11.90;7.50;;;;;;;-149.78;100.00;50271.97;4891368;29;20024;-73
2022/04/26 10:06:36;;;;;;;12.93;8.35;;;;;;;-149.78;100.00;50295.44;4900064;29;20534;-74
2022/04/26 10:09:03;;;;;;;16.73;9.27;;;;;;;-149.78;100.00;50232.84;4887305;29;20045;-73
2022/04/26 10:11:30;;;;;;;12.73;8.73;;;;;;;-149.78;100.00;50264.13;4894952;29;20151;-73
2022/04/26 10:13:57;;;;;;;13.68;8.30;;;;;;;-149.78;100.00;50275.88;4898689;29;20037;-74
2022/04/26 10:16:23;;;;;;;13.55;7.93;;;;;;;-149.78;100.00;50277.81;4899867;29;20040;-74
2022/04/26 10:19:00;;;;;;;11.63;8.45;;;;;;;-149.78;100.00;50260.22;4898901;29;20147;-74
2022/04/26 10:21:26;;;;;;;12.48;8.45;;;;;;;-149.78;100.00;50219.16;4899701;29;20040;-74
2022/04/26 10:23:51;;;;;;;17.98;8.80;;;;;;;-149.78;100.00;50236.75;4889250;29;20642;-74
2022/04/26 10:26:23;;;;;;;11.60;8.60;;;;;;;-149.78;100.00;50205.47;4880683;29;20055;-75
2022/04/26 10:28:59;;;;;;;14.93;8.48;;;;;;;-149.78;100.00;50213.28;4879793;29;20568;-75
2022/04/26 10:31:37;;;;;;;12.52;7.60;;;;;;;-149.78;100.00;50189.81;4883212;29;20515;-74
2022/04/26 10:34:20;;;;;;;13.95;7.00;;;;;;;-149.78;100.00;50230.88;4898532;29;20063;-75
2022/04/26 10:36:47;;;;;;;9.07;7.15;;;;;;;-149.78;100.00;50228.94;4899415;29;20115;-74
2022/04/26 10:39:13;;;;;;;15.55;7.05;;;;;;;-149.78;100.00;50236.75;4899622;29;20041;-73
2022/04/26 10:41:44;;;;;;;12.98;7.20;;;;;;;-149.78;99.62;50238.72;4899543;29;20037;-74
2022/04/26 10:44:13;;;;;;;9.07;6.97;;;;;;;-149.78;95.67;50219.16;4899714;29;20088;-76
2022/04/26 10:47:09;;;;;;;8.50;6.90;;;;;;;-149.78;79.04;50217.19;4899525;29;20033;-73
2022/04/26 10:49:40;;;;;;;11.55;8.27;;;;;;;-149.78;88.00;50228.94;4898987;29;20072;-73
2022/04/26 10:52:10;;;;;;;13.77;8.45;;;;;;;-149.78;91.46;50242.63;4899298;29;20549;-73
2022/04/26 10:54:45;;;;;;;11.07;8.02;;;;;;;-149.78;97.88;50244.59;4879582;29;20555;-73
2022/04/26 10:57:16;;;;;;;13.80;8.77;;;;;;;-149.78;99.07;50246.53;4889129;29;20050;-73
2022/04/26 10:59:43;;;;;;;18.15;7.45;;;;;;;-149.78;92.57;50262.19;4899258;29;20071;-73
2022/04/26 11:02:12;;;;;;;13.93;7.55;;;;;;;-149.78;87.92;50268.03;4882698;29;20085;-73
2022/04/26 11:04:38;;;;;;;12.93;7.97;;;;;;;-149.78;86.29;50256.31;4897880;29;20092;-72
2022/04/26 11:07:16;;;;;;;12.18;7.63;;;;;;;-149.78;74.58;50201.56;4898988;29;20029;-72
2022/04/26 11:09:47;;;;;;;11.63;7.57;;;;;;;-149.78;76.00;50228.94;4897740;29;20048;-72
2022/04/26 11:12:17;;;;;;;12.82;8.07;;;;;;;-149.78;74.08;50256.31;4899029;29;20040;-73
2022/04/26 11:14:45;;;;;;;11.07;7.07;;;;;;;-149.78;72.00;50254.34;4899849;29;20042;-73
2022/04/26 11:17:10;;;;;;;14.38;7.03;;;;;;;-149.78;73.29;50264.13;4903781;29;20043;-74
2022/04/26 11:19:48;;;;;;;18.08;6.65;;;;;;;-149.78;71.11;50252.41;4898370;29;20135;-74
2022/04/26 11:22:13;;;;;;;8.48;5.95;;;;;;;-149.78;71.85;50275.88;4898639;29;20032;-73
2022/04/26 11:30:10;;;;;;;10.30;6.38;;;;;;;-149.78;72.01;50213.28;4897209;29;20056;-72
2022/04/26 11:32:43;;;;;;;10.60;5.95;;;;;;;-149.78;72.90;50219.16;4898166;29;20049;-71
2022/04/26 11:35:21;;;;;;;9.00;5.60;;;;;;;-149.78;75.17;50260.22;4893375;29;20473;-71
2022/04/26 11:37:49;;;;;;;13.48;6.43;;;;;;;-149.78;74.77;50248.50;4874042;29;20041;-73
2022/04/26 11:40:29;;;;;;;10.88;6.85;;;;;;;-149.78;75.60;50221.13;4874058;29;20518;-72
2022/04/26 11:42:57;;;;;;;14.95;6.57;;;;;;;-149.78;72.05;50275.88;4891216;29;20600;-72
2022/04/26 11:45:28;;;;;;;10.20;6.68;;;;;;;-149.78;72.62;50225.03;4891126;29;21459;-72
2022/04/26 11:47:55;;;;;;;13.80;8.20;;;;;;;-149.78;71.59;50225.03;4874885;29;20164;-71
2022/04/26 11:50:24;;;;;;;13.43;6.18;;;;;;;-149.78;67.92;50268.03;4889004;29;20393;-71
2022/04/26 11:52:52;;;;;;;11.02;5.88;;;;;;;-149.78;65.14;50252.41;4889829;29;20444;-72
2022/04/26 11:55:38;;;;;;;9.57;6.20;;;;;;;-149.78;65.56;50217.19;4886052;29;20040;-73
2022/04/26 11:58:20;;;;;;;11.20;7.10;;;;;;;-149.78;64.48;50246.53;4889605;29;20397;-73
2022/04/26 12:00:49;;;;;;;11.70;7.05;;;;;;;-149.78;63.79;50248.50;4898145;29;20040;-73
2022/04/26 12:03:17;;;;;;;15.57;6.05;;;;;;;-149.78;66.11;50252.41;4898078;29;20032;-73
2022/04/26 12:05:44;;;;;;;11.52;6.45;;;;;;;-149.78;69.47;50283.69;4880276;29;20124;-73
2022/04/26 12:08:13;;;;;;;12.60;7.00;;;;;;;-149.78;71.63;50303.25;4896043;29;20036;-72
2022/04/26 12:10:39;;;;;;;11.20;6.90;;;;;;;-149.78;71.11;50252.41;4896197;29;20041;-71
2022/04/26 12:13:06;;;;;;;14.95;6.82;;;;;;;-149.78;65.67;50254.34;4896467;29;20036;-71
2022/04/26 12:15:40;;;;;;;14.35;7.72;;;;;;;-149.78;62.90;50262.19;4878164;29;20029;-72
2022/04/26 12:18:14;;;;;;;13.93;6.75;;;;;;;-149.78;64.67;50234.81;4883181;29;20036;-73
2022/04/26 12:21:02;;;;;;;11.77;6.72;;;;;;;-149.78;61.92;50248.50;4890775;29;20024;-73
2022/04/26 12:23:30;;;;;;;9.50;6.32;;;;;;;-149.78;62.73;50268.03;4879773;29;20089;-73
2022/04/26 12:26:00;;;;;;;12.27;7.05;;;;;;;-149.78;63.41;50275.88;4878855;29;20036;-73
2022/04/26 12:28:26;;;;;;;12.23;6.20;;;;;;;-149.78;60.68;50264.13;4878788;29;20041;-73
2022/04/26 12:30:52;;;;;;;9.07;5.88;;;;;;;-149.78;59.84;50217.19;4877474;29;20136;-74
2022/04/26 12:33:25;;;;;;;9.05;5.70;;;;;;;-149.78;59.00;50244.59;4878418;29;20037;-71
2022/04/26 12:36:05;;;;;;;10.50;5.57;;;;;;;-149.78;60.68;50232.84;4877778;29;20040;-74
2022/04/26 12:38:45;;;;;;;11.93;5.70;;;;;;;-149.78;58.71;50248.50;4885601;29;20037;-74
2022/04/26 12:41:10;;;;;;;10.73;5.43;;;;;;;-149.78;61.45;50221.13;4883623;29;20037;-74
2022/04/26 12:43:37;;;;;;;13.45;6.10;;;;;;;-149.78;62.43;50279.78;4897160;29;20372;-74
2022/04/26 12:46:06;;;;;;;9.55;6.10;;;;;;;-149.78;60.34;50228.94;4880638;29;20061;-74
2022/04/26 12:51:27;;;;;;;11.90;6.57;;;;;;;-149.78;59.55;50240.66;4900948;29;20033;-74
2022/04/26 12:53:54;;;;;;;9.35;6.80;;;;;;;-149.78;60.08;50256.31;4900907;29;20120;-74
2022/04/26 12:56:21;;;;;;;8.82;6.07;;;;;;;-149.78;61.73;50238.72;4899590;29;20048;-74
2022/04/26 12:58:48;;;;;;;11.20;6.32;;;;;;;-149.78;61.54;50256.31;4899676;29;20480;-75
2022/04/26 13:01:15;;;;;;;11.80;6.18;;;;;;;-149.78;62.20;50225.03;4899574;29;20135;-74
2022/04/26 13:03:42;;;;;;;11.02;6.18;;;;;;;-149.78;62.41;50291.50;4885366;29;20500;-74
2022/04/26 13:06:11;;;;;;;13.55;5.55;;;;;;;-149.78;59.01;50264.13;4834872;29;20040;-75
2022/04/26 13:08:39;;;;;;;8.85;5.70;;;;;;;-149.78;59.26;50279.78;4865397;29;20426;-75
2022/04/26 13:11:06;;;;;;;9.38;5.25;;;;;;;-149.78;58.49;50291.50;4882084;29;20036;-74
2022/04/26 13:13:33;;;;;;;10.13;5.80;;;;;;;-149.78;58.37;50273.91;4882023;29;20041;-75
2022/04/26 13:15:59;;;;;;;7.53;5.05;;;;;;;-149.78;58.94;50275.88;4894036;29;20041;-75
2022/04/26 13:18:25;;;;;;;7.35;4.18;;;;;;;-149.78;60.94;50250.44;4880807;29;20490;-74
2022/04/26 13:20:54;;;;;;;9.35;5.25;;;;;;;-149.78;59.32;50258.28;4881912;29;20120;-75
2022/04/26 13:23:21;;;;;;;10.18;4.90;;;;;;;-149.78;59.70;50252.41;4881755;29;20047;-74
2022/04/26 13:25:47;;;;;;;8.75;4.97;;;;;;;-149.78;58.40;50281.75;4880488;29;20100;-75
2022/04/26 13:28:13;;;;;;;8.10;4.68;;;;;;;-149.78;59.69;50275.88;4880591;29;20040;-75
2022/04/26 13:30:39;;;;;;;8.82;4.95;;;;;;;-149.78;62.04;50262.19;4881643;29;20049;-75
2022/04/26 13:33:05;;;;;;;9.63;5.40;;;;;;;-149.78;58.73;50275.88;4880288;29;20136;-75
2022/04/26 13:35:33;;;;;;;11.73;4.78;;;;;;;-149.78;66.33;50232.84;4884332;29;20037;-74
2022/04/26 13:37:59;;;;;;;7.72;4.50;;;;;;;-149.78;71.53;50256.31;4896079;29;20067;-74
2022/04/26 13:40:26;;;;;;;8.80;4.65;;;;;;;-149.78;70.39;50303.25;4888514;29;20120;-73
2022/04/26 13:42:51;;;;;;;7.95;4.20;;;;;;;-149.78;72.81;50279.78;4889548;29;20047;-74
2022/04/26 13:45:18;;;;;;;11.68;4.60;;;;;;;-149.78;73.00;50285.66;4891864;29;20059;-74
2022/04/26 13:47:45;;;;;;;7.88;4.32;;;;;;;-149.78;69.81;50275.88;4888222;29;20031;-75
2022/04/26 13:50:12;;;;;;;11.73;4.80;;;;;;;-149.78;72.45;50287.59;4888457;29;20100;-73
2022/04/26 13:52:38;;;;;;;8.43;4.97;;;;;;;-149.78;73.44;50344.31;4888771;29;20366;-75
2022/04/26 13:55:04;;;;;;;10.90;5.03;;;;;;;-149.78;74.48;50307.16;4886808;29;20120;-75
2022/04/26 13:57:30;;;;;;;9.35;4.65;;;;;;;-149.78;73.93;50264.13;4868273;29;20047;-73
2022/04/26 13:59:56;;;;;;;7.65;4.70;;;;;;;-149.78;71.53;50268.03;4882467;29;20385;-74
2022/04/26 14:02:21;;;;;;;9.20;4.72;;;;;;;-149.78;71.48;50268.03;4884116;29;20416;-77
2022/04/26 14:04:50;;;;;;;13.65;4.88;;;;;;;-149.78;70.57;50264.13;4889795;29;20047;-76
2022/04/26 14:07:17;;;;;;;9.52;5.05;;;;;;;-149.78;71.42;50268.03;4885738;29;20041;-74
2022/04/26 14:09:43;;;;;;;9.30;4.70;;;;;;;-149.78;72.88;50279.78;4889789;29;20043;-75
2022/04/26 14:12:11;;;;;;;8.85;5.00;;;;;;;-149.78;70.38;50303.25;4880073;29;20393;-75
2022/04/26 14:22:50;;;;;;;10.80;5.45;;;;;;;-149.78;71.62;50291.50;4887170;29;20370;-73
2022/04/26 14:25:16;;;;;;;7.50;4.30;;;;;;;-149.78;68.16;50271.97;4892475;29;20129;-73
2022/04/26 14:27:44;;;;;;;8.10;4.55;;;;;;;-149.78;67.63;50260.22;4888854;29;20525;-71
2022/04/26 14:30:12;;;;;;;9.00;4.80;;;;;;;-149.78;70.47;50289.56;4892679;29;20039;-71
2022/04/26 14:32:38;;;;;;;8.25;4.65;;;;;;;-149.78;67.56;50283.69;4893309;29;20032;-72
2022/04/26 14:35:05;;;;;;;7.30;4.55;;;;;;;-149.78;67.75;50262.19;4892983;29;20100;-71
2022/04/26 14:37:33;;;;;;;8.77;4.95;;;;;;;-149.78;70.57;50275.88;4885585;29;20047;-70
2022/04/26 14:39:59;;;;;;;13.23;5.13;;;;;;;-149.78;68.60;50281.75;4893367;29;20386;-71
2022/04/26 14:42:28;;;;;;;10.10;5.07;;;;;;;-149.78;70.08;50301.28;4869397;29;20088;-72
2022/04/26 14:44:54;;;;;;;9.43;4.72;;;;;;;-149.78;68.13;50291.50;4894884;29;20060;-72
2022/04/26 14:47:21;;;;;;;8.02;4.63;;;;;;;-149.78;66.80;50273.91;4889723;29;20058;-72
2022/04/26 14:49:47;;;;;;;9.27;4.70;;;;;;;-149.78;66.68;50287.59;4887761;29;20060;-71
2022/04/26 14:52:18;;;;;;;11.02;4.93;;;;;;;-149.78;65.81;50271.97;4882619;29;20382;-71
2022/04/26 14:54:44;;;;;;;8.07;4.57;;;;;;;-149.78;64.94;50295.44;4899007;29;20044;-71
2022/04/26 14:57:09;;;;;;;9.63;4.30;;;;;;;-149.78;63.19;50275.88;4882189;29;20052;-70
2022/04/26 14:59:45;;;;;;;5.40;3.45;;;;;;;-149.78;61.95;50252.41;4897349;29;20041;-70
2022/04/26 15:02:12;;;;;;;10.20;4.20;;;;;;;-149.78;63.30;50283.69;4895128;29;20032;-70
2022/04/26 15:04:39;;;;;;;6.40;4.20;;;;;;;-149.78;64.18;50303.25;4895551;29;20097;-71
2022/04/26 15:07:05;;;;;;;7.97;3.53;;;;;;;-149.78;62.71;50287.59;4898832;29;20044;-70
2022/04/26 15:09:43;;;;;;;10.93;4.13;;;;;;;-149.78;60.48;50271.97;4898665;29;20047;-70
2022/04/26 15:17:48;;;;;;;6.45;3.80;;;;;;;-149.78;59.90;50314.97;4889967;29;20037;-70
2022/04/26 15:20:14;;;;;;;5.68;3.63;;;;;;;-149.78;60.66;50275.88;4888083;29;20040;-70